LFRS/NTE METAR and TAF weather

Enter ICAO airport designator
Station Type Date Time Source
LFRS METAR 2020/04/07 07:00 UTC NOAA

LFRS 070700Z AUTO 08009KT 9999 -RADZ FEW009 OVC058 12/11 Q1025 TEMPO 4000 -RA BKN006 BKN030


Station Type Date Time Source
LFRS Decoded METAR 2020/04/07 07:00 UTC NOAA

Nantes, France (LFRS) 47-10N 001-36W 27M
Apr 07, 2020 - 03:00 AM EDT / 2020.04.07 0700 UTC
Wind: from the E (080 degrees) at 10 MPH (9 KT):0
Visibility: greater than 7 mile(s):0
Sky conditions: overcast
Weather: light rain, drizzle
Temperature: 53 F (12 C)
Dew Point: 51 F (11 C)
Relative Humidity: 93%
Pressure (altimeter): 30.27 in. Hg (1025 hPa)
ob: LFRS 070700Z AUTO 08009KT 9999 -RADZ FEW009 OVC058 12/11 Q1025 TEMPO 4000 -RA BKN006 BKN030
cycle: 7

Station Type Date Time Source
LFRS TAF 2020/04/07 06:21 UTC NOAA

TAF LFRS 070500Z 0706/0812 08006KT 9999 BKN035
TEMPO 0706/0710 4000 -RA BKN006 BKN030

Example: see airport list